ENT7104 GVAC-EPWA
Flight info
| Callsign | ENT7104 |
|---|---|
| Flight time | N/A |
| Altitude | 33000 |
| Route | DIMKI DCT IPERA/N0467F340 N873 ISOKA/N0468F330 N873 LIMAL/N0470F320 DCT UDATI DCT ODEGI DCT LOMAS DCT GDV DCT LZR DCT KORAL UN871 SONSO DCT NIRAL UN871 OSDAM UM985 BARPA M985 PIMOS M445 SOPET M985 LUMAS DCT UNANA DCT STP DCT RAPED DCT PIGOS DCT EKSID DCT NOSTA DCT NOPMU/N0467F310 DCT LEDVA/N0458F350 DCT NETIR DCT KOTEK M866 LOGDA |
| Aircraft | B38M/M-SDE1FGHILORVWXY/HB1 |
Departure
| Time | 2026-05-01 13:56 |
|---|---|
| Airport | Amílcar Cabral International Airport (GVAC) |
Arrival
| Time | N/A |
|---|---|
| Airport | Warsaw Chopin Airport (EPWA) |
| Time | Latitude | Longitude | Altitude | Speed | Heading |
|---|---|---|---|---|---|
| 2026-05-01 13:42 | 16.73236 | -22.94506 | 153 ft | 0 kts | 89° |
| 2026-05-01 13:49 | 16.73236 | -22.94514 | 153 ft | 2 kts | 90° |
| 2026-05-01 13:49 | 16.73236 | -22.94531 | 153 ft | 2 kts | 89° |
| 2026-05-01 13:50 | 16.73235 | -22.94549 | 153 ft | 2 kts | 87° |
| 2026-05-01 13:50 | 16.73235 | -22.94566 | 153 ft | 2 kts | 91° |
| 2026-05-01 13:50 | 16.73237 | -22.94583 | 153 ft | 2 kts | 106° |
| 2026-05-01 13:50 | 16.73247 | -22.94595 | 153 ft | 2 kts | 180° |
| 2026-05-01 13:51 | 16.73263 | -22.94594 | 153 ft | 2 kts | 180° |
| 2026-05-01 13:51 | 16.73273 | -22.94594 | 153 ft | 0 kts | 180° |
| 2026-05-01 13:53 | 16.73270 | -22.94594 | 153 ft | 2 kts | 180° |
| 2026-05-01 13:53 | 16.73092 | -22.94603 | 153 ft | 21 kts | 215° |
| 2026-05-01 13:53 | 16.72980 | -22.94690 | 153 ft | 23 kts | 181° |
| 2026-05-01 13:54 | 16.72809 | -22.94689 | 153 ft | 26 kts | 179° |
| 2026-05-01 13:54 | 16.72621 | -22.94687 | 152 ft | 28 kts | 180° |
| 2026-05-01 13:54 | 16.72429 | -22.94695 | 152 ft | 17 kts | 209° |
| 2026-05-01 13:54 | 16.72403 | -22.94783 | 152 ft | 10 kts | 265° |
| 2026-05-01 13:55 | 16.72383 | -22.94854 | 151 ft | 12 kts | 228° |
| 2026-05-01 13:55 | 16.72271 | -22.94869 | 152 ft | 18 kts | 142° |
| 2026-05-01 13:55 | 16.72181 | -22.94819 | 152 ft | 13 kts | 217° |
| 2026-05-01 13:55 | 16.72200 | -22.94883 | 152 ft | 12 kts | 359° |
| 2026-05-01 13:56 | 16.72426 | -22.94887 | 152 ft | 65 kts | 360° |
| 2026-05-01 13:56 | 16.73094 | -22.94892 | 154 ft | 125 kts | 359° |
| 2026-05-01 13:56 | 16.74139 | -22.94893 | 201 ft | 169 kts | 3° |
| 2026-05-01 13:56 | 16.75321 | -22.94901 | 866 ft | 171 kts | 2° |
| 2026-05-01 13:57 | 16.76510 | -22.94916 | 1659 ft | 171 kts | 2° |
| 2026-05-01 13:57 | 16.77725 | -22.94928 | 2297 ft | 178 kts | 3° |
| 2026-05-01 13:57 | 16.78998 | -22.94944 | 2837 ft | 185 kts | 2° |
| 2026-05-01 13:57 | 16.80280 | -22.94955 | 3426 ft | 186 kts | 1° |
| 2026-05-01 13:58 | 16.81622 | -22.94967 | 3889 ft | 200 kts | 360° |
| 2026-05-01 13:58 | 16.83066 | -22.94982 | 4342 ft | 215 kts | 359° |
| 2026-05-01 13:58 | 16.84628 | -22.94857 | 4776 ft | 241 kts | 12° |
| 2026-05-01 13:58 | 16.86189 | -22.94070 | 5263 ft | 256 kts | 39° |
| 2026-05-01 13:59 | 16.87273 | -22.92596 | 6036 ft | 260 kts | 64° |
| 2026-05-01 13:59 | 16.88135 | -22.90897 | 6607 ft | 272 kts | 60° |
| 2026-05-01 13:59 | 16.89113 | -22.89144 | 7043 ft | 288 kts | 60° |
| 2026-05-01 13:59 | 16.90138 | -22.87286 | 7612 ft | 297 kts | 61° |
| 2026-05-01 14:00 | 16.91403 | -22.85594 | 8415 ft | 299 kts | 41° |
| 2026-05-01 14:00 | 16.93151 | -22.84381 | 9101 ft | 306 kts | 33° |
| 2026-05-01 14:00 | 16.94959 | -22.83230 | 9821 ft | 309 kts | 33° |
| 2026-05-01 14:00 | 16.96823 | -22.82057 | 10432 ft | 316 kts | 32° |
| 2026-05-01 14:01 | 16.98762 | -22.80847 | 10809 ft | 332 kts | 32° |
| 2026-05-01 14:01 | 17.00797 | -22.79584 | 11102 ft | 349 kts | 32° |
| 2026-05-01 14:01 | 17.02930 | -22.78264 | 11430 ft | 363 kts | 32° |
| 2026-05-01 14:01 | 17.05129 | -22.76903 | 11944 ft | 368 kts | 32° |
| 2026-05-01 14:02 | 17.07333 | -22.75539 | 12646 ft | 369 kts | 31° |
| 2026-05-01 14:02 | 17.09559 | -22.74162 | 13178 ft | 374 kts | 31° |
| 2026-05-01 14:02 | 17.11810 | -22.72767 | 13796 ft | 377 kts | 31° |
| 2026-05-01 14:02 | 17.14082 | -22.71361 | 14282 ft | 381 kts | 31° |
| 2026-05-01 14:03 | 17.16338 | -22.69963 | 14787 ft | 383 kts | 31° |
| 2026-05-01 14:03 | 17.18643 | -22.68535 | 15300 ft | 385 kts | 31° |
| 2026-05-01 14:03 | 17.20955 | -22.67103 | 15792 ft | 388 kts | 31° |
| 2026-05-01 14:03 | 17.23286 | -22.65658 | 16296 ft | 390 kts | 31° |
| 2026-05-01 14:04 | 17.25624 | -22.64208 | 16767 ft | 392 kts | 30° |
| 2026-05-01 14:04 | 17.27978 | -22.62747 | 17227 ft | 394 kts | 30° |
| 2026-05-01 14:04 | 17.30348 | -22.61277 | 17696 ft | 396 kts | 30° |
| 2026-05-01 14:04 | 17.32725 | -22.59801 | 18149 ft | 398 kts | 30° |
| 2026-05-01 14:05 | 17.35117 | -22.58316 | 18552 ft | 400 kts | 30° |
| 2026-05-01 14:05 | 17.37520 | -22.56823 | 18931 ft | 402 kts | 29° |
| 2026-05-01 14:05 | 17.39902 | -22.55343 | 19299 ft | 404 kts | 29° |
| 2026-05-01 14:05 | 17.42321 | -22.53840 | 19674 ft | 405 kts | 29° |
| 2026-05-01 14:06 | 17.44751 | -22.52329 | 20024 ft | 407 kts | 29° |
| 2026-05-01 14:06 | 17.47198 | -22.50808 | 20389 ft | 409 kts | 28° |
| 2026-05-01 14:06 | 17.49650 | -22.49282 | 20760 ft | 411 kts | 28° |
| 2026-05-01 14:06 | 17.52116 | -22.47747 | 21119 ft | 413 kts | 28° |
| 2026-05-01 14:07 | 17.54598 | -22.46202 | 21472 ft | 415 kts | 28° |
| 2026-05-01 14:07 | 17.57060 | -22.44670 | 21823 ft | 417 kts | 28° |
| 2026-05-01 14:07 | 17.59560 | -22.43112 | 22181 ft | 418 kts | 28° |
| 2026-05-01 14:08 | 17.64597 | -22.39974 | 22869 ft | 423 kts | 28° |
| 2026-05-01 14:08 | 17.67138 | -22.38390 | 23196 ft | 425 kts | 27° |
| 2026-05-01 14:08 | 17.69695 | -22.36794 | 23534 ft | 427 kts | 27° |
| 2026-05-01 14:08 | 17.72228 | -22.35214 | 23828 ft | 430 kts | 27° |
| 2026-05-01 14:09 | 17.74805 | -22.33606 | 24103 ft | 432 kts | 27° |
| 2026-05-01 14:09 | 17.77395 | -22.31989 | 24384 ft | 434 kts | 27° |
| 2026-05-01 14:09 | 17.79996 | -22.30364 | 24667 ft | 436 kts | 27° |
| 2026-05-01 14:09 | 17.82610 | -22.28731 | 24947 ft | 438 kts | 27° |
| 2026-05-01 14:10 | 17.85240 | -22.27088 | 25225 ft | 441 kts | 27° |
| 2026-05-01 14:10 | 17.87888 | -22.25433 | 25506 ft | 443 kts | 27° |
| 2026-05-01 14:10 | 17.90560 | -22.23791 | 25777 ft | 445 kts | 26° |
| 2026-05-01 14:10 | 17.93240 | -22.22144 | 26052 ft | 447 kts | 26° |
| 2026-05-01 14:11 | 17.95901 | -22.20508 | 26331 ft | 449 kts | 26° |
| 2026-05-01 14:11 | 18.01320 | -22.17174 | 26872 ft | 453 kts | 26° |
| 2026-05-01 14:11 | 18.04052 | -22.15492 | 27129 ft | 455 kts | 26° |
| 2026-05-01 14:12 | 18.06798 | -22.13801 | 27397 ft | 457 kts | 26° |
| 2026-05-01 14:12 | 18.09515 | -22.12127 | 27655 ft | 459 kts | 26° |
| 2026-05-01 14:12 | 18.12277 | -22.10424 | 27900 ft | 461 kts | 26° |
| 2026-05-01 14:12 | 18.15056 | -22.08711 | 28156 ft | 463 kts | 26° |
| 2026-05-01 14:13 | 18.17849 | -22.06988 | 28400 ft | 465 kts | 26° |
| 2026-05-01 14:13 | 18.19704 | -22.05843 | 28556 ft | 467 kts | 26° |
| 2026-05-01 14:13 | 18.23462 | -22.03523 | 28887 ft | 469 kts | 26° |
| 2026-05-01 14:13 | 18.26289 | -22.01778 | 29119 ft | 472 kts | 26° |
| 2026-05-01 14:14 | 18.29124 | -22.00027 | 29358 ft | 473 kts | 26° |
| 2026-05-01 14:14 | 18.31970 | -21.98268 | 29595 ft | 475 kts | 26° |
| 2026-05-01 14:14 | 18.34799 | -21.96519 | 29825 ft | 477 kts | 26° |
| 2026-05-01 14:14 | 18.37668 | -21.94744 | 30061 ft | 479 kts | 26° |
| 2026-05-01 14:15 | 18.40553 | -21.92959 | 30258 ft | 481 kts | 26° |
| 2026-05-01 14:15 | 18.43446 | -21.91169 | 30439 ft | 483 kts | 26° |
| 2026-05-01 14:15 | 18.46358 | -21.89365 | 30621 ft | 485 kts | 26° |
| 2026-05-01 14:15 | 18.49267 | -21.87563 | 30801 ft | 487 kts | 26° |
| 2026-05-01 14:16 | 18.52197 | -21.85748 | 30971 ft | 489 kts | 26° |
| 2026-05-01 14:16 | 18.55138 | -21.83924 | 31146 ft | 491 kts | 26° |
| 2026-05-01 14:16 | 18.58051 | -21.82118 | 31327 ft | 492 kts | 26° |
| 2026-05-01 14:16 | 18.61012 | -21.80280 | 31496 ft | 494 kts | 26° |
| 2026-05-01 14:17 | 18.63990 | -21.78432 | 31656 ft | 497 kts | 26° |
| 2026-05-01 14:17 | 18.66970 | -21.76581 | 31860 ft | 498 kts | 26° |
| 2026-05-01 14:17 | 18.69957 | -21.74726 | 32120 ft | 497 kts | 26° |
| 2026-05-01 14:17 | 18.72940 | -21.72872 | 32358 ft | 498 kts | 26° |
| 2026-05-01 14:18 | 18.75895 | -21.71035 | 32587 ft | 498 kts | 26° |
| 2026-05-01 14:18 | 18.78883 | -21.69176 | 32817 ft | 498 kts | 26° |
| 2026-05-01 14:18 | 18.81868 | -21.67319 | 33033 ft | 499 kts | 26° |
| 2026-05-01 14:18 | 18.83853 | -21.66083 | 33093 ft | 499 kts | 26° |
| 2026-05-01 14:19 | 18.90836 | -21.61734 | 33100 ft | 498 kts | 26° |
| 2026-05-01 14:19 | 18.96809 | -21.58010 | 33098 ft | 498 kts | 26° |
| 2026-05-01 14:20 | 19.05729 | -21.52443 | 33100 ft | 498 kts | 26° |
| 2026-05-01 14:21 | 19.11711 | -21.48706 | 33095 ft | 499 kts | 26° |
| 2026-05-01 14:21 | 19.17684 | -21.44971 | 33095 ft | 499 kts | 26° |
| 2026-05-01 14:22 | 19.26657 | -21.39355 | 33103 ft | 499 kts | 26° |
| 2026-05-01 14:22 | 19.32608 | -21.35626 | 33091 ft | 499 kts | 26° |
| 2026-05-01 14:23 | 19.38585 | -21.31878 | 33097 ft | 499 kts | 26° |
| 2026-05-01 14:23 | 19.44575 | -21.28118 | 33101 ft | 500 kts | 26° |
| 2026-05-01 14:24 | 19.50520 | -21.24383 | 33109 ft | 500 kts | 26° |
| 2026-05-01 14:24 | 19.56515 | -21.20614 | 33102 ft | 500 kts | 26° |
| 2026-05-01 14:25 | 19.62500 | -21.16847 | 33107 ft | 500 kts | 26° |
| 2026-05-01 14:25 | 19.68490 | -21.13074 | 33111 ft | 500 kts | 26° |
| 2026-05-01 14:26 | 19.77465 | -21.07415 | 33101 ft | 501 kts | 26° |
| 2026-05-01 14:27 | 19.83426 | -21.03652 | 33101 ft | 501 kts | 26° |
| 2026-05-01 14:27 | 19.89409 | -20.99872 | 33101 ft | 500 kts | 26° |
| 2026-05-01 14:28 | 19.98399 | -20.94185 | 33106 ft | 500 kts | 26° |
| 2026-05-01 14:28 | 20.04378 | -20.90399 | 33101 ft | 500 kts | 26° |
| 2026-05-01 14:29 | 20.10365 | -20.86605 | 33101 ft | 500 kts | 26° |
| 2026-05-01 14:30 | 20.22310 | -20.79025 | 33103 ft | 500 kts | 26° |
| 2026-05-01 14:31 | 20.31231 | -20.73355 | 33107 ft | 499 kts | 26° |
| 2026-05-01 14:31 | 20.37195 | -20.69556 | 33108 ft | 499 kts | 26° |
| 2026-05-01 14:32 | 20.43147 | -20.65755 | 33108 ft | 498 kts | 26° |
| 2026-05-01 14:32 | 20.49103 | -20.61950 | 33108 ft | 498 kts | 26° |
| 2026-05-01 14:33 | 20.55018 | -20.58167 | 33111 ft | 498 kts | 26° |
| 2026-05-01 14:33 | 20.60960 | -20.54364 | 33109 ft | 497 kts | 26° |
| 2026-05-01 14:34 | 20.66896 | -20.50561 | 33109 ft | 497 kts | 26° |
| 2026-05-01 14:34 | 20.72834 | -20.46753 | 33110 ft | 497 kts | 26° |
| 2026-05-01 14:35 | 20.78764 | -20.42947 | 33109 ft | 496 kts | 26° |
| 2026-05-01 14:35 | 20.83685 | -20.39785 | 33111 ft | 496 kts | 26° |
| 2026-05-01 14:36 | 20.90576 | -20.35354 | 33114 ft | 496 kts | 26° |
| 2026-05-01 14:36 | 20.95493 | -20.32190 | 33111 ft | 496 kts | 26° |
| 2026-05-01 14:37 | 21.01410 | -20.28379 | 33108 ft | 496 kts | 26° |
| 2026-05-01 14:37 | 21.07329 | -20.24562 | 33109 ft | 496 kts | 26° |
| 2026-05-01 14:38 | 21.13250 | -20.20741 | 33113 ft | 497 kts | 26° |
| 2026-05-01 14:38 | 21.19177 | -20.16913 | 33113 ft | 497 kts | 25° |
| 2026-05-01 14:39 | 21.25105 | -20.13079 | 33113 ft | 498 kts | 25° |
| 2026-05-01 14:39 | 21.31004 | -20.09262 | 33262 ft | 498 kts | 25° |
| 2026-05-01 14:39 | 21.33971 | -20.07340 | 33417 ft | 498 kts | 25° |
| 2026-05-01 14:40 | 21.36937 | -20.05418 | 33571 ft | 498 kts | 25° |
| 2026-05-01 14:40 | 21.39901 | -20.03497 | 33724 ft | 498 kts | 25° |
| 2026-05-01 14:40 | 21.42862 | -20.01576 | 33876 ft | 497 kts | 25° |
| 2026-05-01 14:40 | 21.45829 | -19.99650 | 34031 ft | 497 kts | 25° |
| 2026-05-01 14:41 | 21.48792 | -19.97727 | 34116 ft | 497 kts | 25° |
| 2026-05-01 14:41 | 21.54711 | -19.93881 | 34116 ft | 497 kts | 25° |